createdAt,value
2018-07-10T00:02:28.612Z,42.1
2018-07-10T00:07:28.345Z,42.1
2018-07-10T00:12:27.612Z,42.1
2018-07-10T00:17:27.540Z,42.1
2018-07-10T00:22:27.616Z,42.1
2018-07-10T00:27:27.399Z,42.0
2018-07-10T00:32:28.118Z,42.0
2018-07-10T00:37:28.034Z,42.0
2018-07-10T00:42:27.532Z,42.0
2018-07-10T00:47:27.408Z,42.0
2018-07-10T00:52:27.458Z,42.1
2018-07-10T00:57:26.983Z,42.0
2018-07-10T01:02:27.591Z,42.1
2018-07-10T01:07:27.843Z,42.2
2018-07-10T01:12:28.716Z,42.3
2018-07-10T01:17:28.661Z,42.3
2018-07-10T01:22:27.370Z,42.4
2018-07-10T01:27:27.648Z,42.4
2018-07-10T01:32:28.445Z,42.4
2018-07-10T01:37:28.046Z,42.4
2018-07-10T01:42:27.629Z,42.5
2018-07-10T01:47:28.179Z,42.5
2018-07-10T01:52:28.635Z,42.4
2018-07-10T01:57:27.389Z,42.5
2018-07-10T02:02:28.527Z,42.4
2018-07-10T02:07:27.846Z,42.4
2018-07-10T02:12:28.013Z,42.4
2018-07-10T02:17:27.445Z,42.5
2018-07-10T02:22:27.945Z,42.4
2018-07-10T02:27:27.572Z,42.5
2018-07-10T02:32:27.020Z,42.6
2018-07-10T02:37:28.420Z,42.7
2018-07-10T02:42:28.029Z,42.9
2018-07-10T02:47:27.932Z,42.8
2018-07-10T02:52:27.343Z,42.8
2018-07-10T02:57:28.196Z,42.9
2018-07-10T03:02:27.633Z,42.8
2018-07-10T03:07:28.288Z,42.8
2018-07-10T03:12:28.170Z,42.8
2018-07-10T03:17:28.598Z,42.8
2018-07-10T03:22:28.018Z,42.9
2018-07-10T03:27:27.918Z,42.9
2018-07-10T03:32:28.391Z,42.9
2018-07-10T03:37:28.439Z,42.9
2018-07-10T03:42:28.854Z,42.7
2018-07-10T03:47:28.508Z,42.7
2018-07-10T03:52:28.543Z,42.8
2018-07-10T03:57:28.182Z,42.8
2018-07-10T04:02:28.032Z,42.8
2018-07-10T04:07:28.294Z,42.8
2018-07-10T04:12:28.039Z,42.8
2018-07-10T04:17:28.925Z,42.9
2018-07-10T04:22:28.198Z,42.8
2018-07-10T04:27:27.845Z,42.7
2018-07-10T04:32:28.868Z,42.7
2018-07-10T04:37:28.639Z,42.6
2018-07-10T04:42:27.694Z,42.7
2018-07-10T04:47:28.290Z,42.7
2018-07-10T04:52:28.233Z,42.7
2018-07-10T04:57:29.220Z,42.7
2018-07-10T05:02:28.318Z,42.5
2018-07-10T05:07:28.379Z,42.6
2018-07-10T05:12:28.487Z,42.7
2018-07-10T05:17:28.541Z,42.7
2018-07-10T05:22:27.571Z,42.5
2018-07-10T05:27:28.038Z,42.5
2018-07-10T05:32:28.404Z,42.8
2018-07-10T05:37:29.557Z,42.8
2018-07-10T05:42:28.992Z,42.8
2018-07-10T05:47:28.997Z,42.6
2018-07-10T05:52:27.864Z,42.5
2018-07-10T05:57:27.602Z,42.7
2018-07-10T06:02:28.025Z,42.8
2018-07-10T06:07:28.024Z,42.8
2018-07-10T06:12:28.326Z,42.9
2018-07-10T06:17:28.343Z,43.2
2018-07-10T06:22:27.646Z,43.1
2018-07-10T06:27:27.778Z,43.2
2018-07-10T06:32:27.548Z,43.2
2018-07-10T06:37:28.761Z,43.2
2018-07-10T06:42:28.420Z,43.3
2018-07-10T06:47:28.653Z,43.2
2018-07-10T06:52:28.625Z,43.3
2018-07-10T06:57:28.048Z,43.2
2018-07-10T07:02:28.305Z,43.3
2018-07-10T07:07:28.604Z,43.3
2018-07-10T07:12:27.920Z,43.3
2018-07-10T07:17:28.669Z,43.2
2018-07-10T07:22:29.006Z,43.4
2018-07-10T07:27:28.293Z,43.4
2018-07-10T07:32:28.091Z,43.5
2018-07-10T07:37:27.684Z,43.5
2018-07-10T07:42:28.426Z,43.5
2018-07-10T07:47:28.351Z,43.6
2018-07-10T07:52:28.392Z,43.4
2018-07-10T07:57:28.757Z,43.4
2018-07-10T08:02:28.410Z,43.5
2018-07-10T08:07:28.443Z,43.6
2018-07-10T08:12:27.751Z,43.9
2018-07-10T08:17:29.149Z,43.8
2018-07-10T08:22:28.793Z,43.7
2018-07-10T08:27:29.166Z,43.7
2018-07-10T08:32:28.732Z,44.1
2018-07-10T08:37:28.019Z,43.7
2018-07-10T08:42:28.926Z,44.4
2018-07-10T08:47:28.823Z,44.3
2018-07-10T08:52:27.670Z,44.4
2018-07-10T08:57:29.523Z,44.5
2018-07-10T09:02:28.395Z,43.9
2018-07-10T09:07:28.204Z,43.9
2018-07-10T09:12:27.972Z,43.9
2018-07-10T09:17:28.849Z,44.2
2018-07-10T09:22:27.910Z,44.1
2018-07-10T09:27:28.536Z,44.2
2018-07-10T09:32:28.397Z,44.0
2018-07-10T09:37:28.523Z,43.9
2018-07-10T09:42:27.778Z,43.9
2018-07-10T09:47:28.821Z,44.2
2018-07-10T09:52:28.444Z,44.2
2018-07-10T09:57:28.095Z,43.9
2018-07-10T10:02:28.414Z,43.9
2018-07-10T10:07:28.900Z,43.9
2018-07-10T10:12:28.628Z,44.2
2018-07-10T10:17:28.340Z,45.1
2018-07-10T10:22:28.658Z,45.9
2018-07-10T10:27:27.983Z,46.1
2018-07-10T10:32:27.592Z,46.0
2018-07-10T10:37:28.162Z,46.9
2018-07-10T10:42:28.614Z,47.6
2018-07-10T10:47:28.475Z,50.2
2018-07-10T10:52:29.239Z,52.3
2018-07-10T10:57:28.165Z,53.1
2018-07-10T11:02:28.950Z,52.3
2018-07-10T11:07:28.580Z,50.8
2018-07-10T11:12:28.306Z,49.4
2018-07-10T11:17:56.664Z,48.5
2018-07-10T11:22:27.918Z,47.8
2018-07-10T11:27:27.831Z,47.8
2018-07-10T11:32:28.501Z,47.7
2018-07-10T11:37:28.696Z,47.2
2018-07-10T11:42:29.325Z,46.9
2018-07-10T11:47:28.231Z,46.8
2018-07-10T11:52:28.063Z,47.4
2018-07-10T11:57:28.650Z,48.0
2018-07-10T12:02:51.469Z,47.7
2018-07-10T12:08:36.038Z,46.8
2018-07-10T12:12:28.461Z,46.7
2018-07-10T12:17:27.940Z,47.1
2018-07-10T12:22:27.730Z,47.1
2018-07-10T12:27:28.024Z,47.0
2018-07-10T12:32:27.706Z,47.4
2018-07-10T12:37:27.827Z,47.9
2018-07-10T12:42:29.060Z,47.8
2018-07-10T12:47:29.171Z,47.2
2018-07-10T12:52:28.303Z,47.2
2018-07-10T12:57:28.199Z,47.1
2018-07-10T13:02:28.543Z,47.5
2018-07-10T13:07:28.315Z,47.2
2018-07-10T13:12:28.766Z,47.2
2018-07-10T13:17:28.240Z,47.5
2018-07-10T13:22:27.624Z,47.8
2018-07-10T13:27:28.328Z,47.8
2018-07-10T13:32:28.501Z,47.7
2018-07-10T13:37:28.784Z,47.6
2018-07-10T13:42:28.650Z,47.5
2018-07-10T13:47:28.608Z,47.5
2018-07-10T13:52:28.407Z,47.1
2018-07-10T13:57:29.067Z,47.0
2018-07-10T14:02:28.642Z,47.0
2018-07-10T14:07:28.753Z,47.0
2018-07-10T14:12:27.603Z,47.3
2018-07-10T14:17:28.453Z,47.3
2018-07-10T14:22:28.723Z,46.6
2018-07-10T14:27:28.051Z,46.0
2018-07-10T14:32:28.888Z,46.0
2018-07-10T14:37:28.267Z,46.1
2018-07-10T14:42:28.333Z,45.4
2018-07-10T14:47:27.795Z,44.7
2018-07-10T14:52:27.853Z,42.4
2018-07-10T14:57:28.149Z,39.9
2018-07-10T15:02:27.744Z,39.0
2018-07-10T15:07:28.436Z,39.0
2018-07-10T15:12:28.647Z,37.2
2018-07-10T15:17:28.258Z,35.5
2018-07-10T15:22:28.759Z,34.5
2018-07-10T15:27:28.156Z,33.7
2018-07-10T15:32:27.983Z,32.9
2018-07-10T15:37:28.172Z,32.9
2018-07-10T15:42:27.905Z,31.9
2018-07-10T15:47:27.797Z,32.1
2018-07-10T15:52:27.570Z,31.6
2018-07-10T15:57:27.978Z,31.6
2018-07-10T16:02:28.568Z,31.2
2018-07-10T16:07:28.765Z,30.7
2018-07-10T16:12:28.071Z,30.9
2018-07-10T16:17:29.030Z,31.0
2018-07-10T16:22:28.962Z,30.4
2018-07-10T16:27:28.184Z,30.5
2018-07-10T16:32:28.002Z,30.3
2018-07-10T16:37:28.658Z,30.3
2018-07-10T16:42:27.698Z,30.5
2018-07-10T16:47:28.618Z,30.2
2018-07-10T16:52:27.391Z,30.6
2018-07-10T16:57:28.323Z,30.6
2018-07-10T17:02:27.645Z,30.4
2018-07-10T17:07:28.299Z,30.6
2018-07-10T17:12:27.736Z,30.3
2018-07-10T17:17:27.886Z,30.3
2018-07-10T17:22:28.359Z,30.7
2018-07-10T17:27:28.363Z,30.7
2018-07-10T17:32:28.006Z,31.0
2018-07-10T17:37:28.095Z,31.0
2018-07-10T17:42:28.332Z,30.9
2018-07-10T17:47:28.145Z,31.0
2018-07-10T17:52:28.111Z,32.0
2018-07-10T17:57:28.114Z,32.0
2018-07-10T18:02:29.146Z,31.4
2018-07-10T18:07:28.345Z,32.2
2018-07-10T18:12:27.206Z,34.1
2018-07-10T18:17:28.268Z,34.0
2018-07-10T18:22:28.445Z,37.5
2018-07-10T18:27:28.812Z,38.8
2018-07-10T18:32:27.917Z,39.9
2018-07-10T18:37:28.021Z,40.4
2018-07-10T18:42:29.311Z,40.4
2018-07-10T18:47:28.365Z,40.6
2018-07-10T18:52:28.006Z,40.6
2018-07-10T18:57:28.339Z,40.6
2018-07-10T19:02:28.405Z,40.8
2018-07-10T19:07:29.417Z,40.7
2018-07-10T19:12:27.997Z,40.8
2018-07-10T19:17:29.118Z,40.8
2018-07-10T19:22:27.545Z,40.8
2018-07-10T19:27:28.431Z,41.2
2018-07-10T19:32:28.272Z,41.0
2018-07-10T19:37:28.473Z,41.3
2018-07-10T19:42:28.259Z,41.3
2018-07-10T19:47:28.647Z,41.4
2018-07-10T19:52:27.876Z,41.3
2018-07-10T19:57:28.595Z,41.5
2018-07-10T20:02:28.249Z,41.3
2018-07-10T20:07:28.946Z,41.4
2018-07-10T20:12:27.748Z,41.6
2018-07-10T20:17:28.312Z,41.6
2018-07-10T20:22:29.136Z,41.9
2018-07-10T20:27:28.005Z,41.8
2018-07-10T20:32:28.319Z,41.9
2018-07-10T20:37:28.592Z,42.1
2018-07-10T20:42:27.791Z,41.9
2018-07-10T20:47:27.889Z,42.2
2018-07-10T20:52:26.720Z,42.2
2018-07-10T20:57:27.491Z,42.5
2018-07-10T21:02:28.098Z,41.6
2018-07-10T21:07:27.853Z,41.6
2018-07-10T21:12:28.585Z,41.7
2018-07-10T21:17:28.258Z,42.0
2018-07-10T21:22:27.823Z,42.0
2018-07-10T21:27:26.835Z,41.5
2018-07-10T21:32:28.081Z,41.5
2018-07-10T21:37:28.092Z,41.4
2018-07-10T21:42:27.685Z,41.8
2018-07-10T21:47:27.659Z,41.3
2018-07-10T21:52:27.363Z,41.6
2018-07-10T21:57:28.348Z,41.7
2018-07-10T22:02:27.834Z,41.6
2018-07-10T22:07:28.146Z,41.9
2018-07-10T22:12:27.758Z,41.8
2018-07-10T22:23:04.522Z,41.6
2018-07-10T22:28:02.994Z,41.8
2018-07-10T22:33:03.105Z,41.9
2018-07-10T22:38:03.201Z,42.0
2018-07-10T22:43:02.891Z,42.0
2018-07-10T22:48:03.760Z,42.0
2018-07-10T22:53:03.247Z,42.0
2018-07-10T22:58:03.436Z,42.0
2018-07-10T23:03:03.378Z,42.1
2018-07-10T23:08:03.304Z,42.1
2018-07-10T23:12:27.578Z,42.0
2018-07-10T23:17:29.095Z,41.9
2018-07-10T23:22:27.926Z,42.0
2018-07-10T23:27:27.262Z,41.8
2018-07-10T23:32:28.342Z,41.9
2018-07-10T23:37:27.276Z,41.8
2018-07-10T23:42:28.499Z,42.2
2018-07-10T23:47:28.568Z,42.2
2018-07-10T23:52:27.599Z,41.8
2018-07-10T23:57:27.537Z,41.8
